createdAt,value
2023-01-13T00:00:13.690Z,12.17
2023-01-13T00:01:18.226Z,12.12
2023-01-13T00:02:19.879Z,12.16
2023-01-13T00:03:21.813Z,12.01
2023-01-13T00:04:23.622Z,12.08
2023-01-13T00:05:27.112Z,12.09
2023-01-13T00:06:29.956Z,12.05
2023-01-13T00:07:31.672Z,12.08
2023-01-13T00:08:33.726Z,12.05
2023-01-13T00:09:36.967Z,12.03
2023-01-13T00:10:38.922Z,11.88
2023-01-13T00:11:40.674Z,11.95
2023-01-13T00:12:43.646Z,12.05
2023-01-13T00:13:45.566Z,11.98
2023-01-13T00:14:47.661Z,12.05
2023-01-13T00:15:58.264Z,12.05
2023-01-13T00:16:59.874Z,12.10
2023-01-13T00:18:01.700Z,12.16
2023-01-13T00:19:03.417Z,12.30
2023-01-13T00:20:05.906Z,12.22
2023-01-13T00:21:13.897Z,12.24
2023-01-13T00:22:16.164Z,12.15
2023-01-13T00:23:17.885Z,12.05
2023-01-13T00:24:19.396Z,11.97
2023-01-13T00:25:21.103Z,11.91
2023-01-13T00:26:25.726Z,11.77
2023-01-13T00:27:28.976Z,11.85
2023-01-13T00:28:31.057Z,11.81
2023-01-13T00:29:32.605Z,11.74
2023-01-13T00:30:34.421Z,11.72
2023-01-13T00:31:36.039Z,11.65
2023-01-13T00:32:38.085Z,11.64
2023-01-13T00:33:40.753Z,11.54
2023-01-13T00:34:42.660Z,11.59
2023-01-13T00:35:44.308Z,11.66
2023-01-13T00:36:46.057Z,11.69
2023-01-13T00:37:47.829Z,11.75
2023-01-13T00:38:51.365Z,11.71
2023-01-13T00:39:54.118Z,11.56
2023-01-13T00:41:08.221Z,11.65
2023-01-13T00:42:28.396Z,11.69
2023-01-13T00:43:32.570Z,11.52
2023-01-13T00:44:34.225Z,11.57
2023-01-13T00:45:35.927Z,11.74
2023-01-13T00:46:37.744Z,11.83
2023-01-13T00:47:39.543Z,11.76
2023-01-13T00:48:41.335Z,11.81
2023-01-13T00:49:43.175Z,11.78
2023-01-13T00:50:45.288Z,11.76
2023-01-13T00:51:48.511Z,11.82
2023-01-13T00:52:51.061Z,11.78
2023-01-13T00:53:52.745Z,11.86
2023-01-13T00:54:54.371Z,11.91
2023-01-13T00:56:04.397Z,11.84
2023-01-13T00:57:07.619Z,11.77
2023-01-13T00:58:09.233Z,11.71
2023-01-13T00:59:13.457Z,11.57
2023-01-13T01:00:15.499Z,11.58
2023-01-13T01:01:22.069Z,11.50
2023-01-13T01:02:23.711Z,11.33
2023-01-13T01:03:25.510Z,11.30
2023-01-13T01:04:27.058Z,11.27
2023-01-13T01:05:28.977Z,11.27
2023-01-13T01:06:30.816Z,11.36
2023-01-13T01:07:32.397Z,11.21
2023-01-13T01:08:35.667Z,11.14
2023-01-13T01:09:39.837Z,11.20
2023-01-13T01:10:41.730Z,11.21
2023-01-13T01:11:44.316Z,11.15
2023-01-13T01:12:47.081Z,11.00
2023-01-13T01:13:52.064Z,10.97
2023-01-13T01:14:56.648Z,10.95
2023-01-13T01:16:00.207Z,10.87
2023-01-13T01:17:02.371Z,10.96
2023-01-13T01:18:03.983Z,10.98
2023-01-13T01:19:06.587Z,10.95
2023-01-13T01:20:08.853Z,10.94
2023-01-13T01:21:11.677Z,10.89
2023-01-13T01:22:15.477Z,10.89
2023-01-13T01:23:17.167Z,10.78
2023-01-13T01:24:19.001Z,10.65
2023-01-13T01:25:22.446Z,10.69
2023-01-13T01:26:26.019Z,10.74
2023-01-13T01:27:28.369Z,10.56
2023-01-13T01:28:30.306Z,10.63
2023-01-13T01:29:33.100Z,10.54
2023-01-13T01:30:35.079Z,10.61
2023-01-13T01:31:37.210Z,10.35
2023-01-13T01:32:39.187Z,10.64
2023-01-13T01:33:42.239Z,10.58
2023-01-13T01:34:44.119Z,10.55
2023-01-13T01:35:48.115Z,10.75
2023-01-13T01:36:49.708Z,10.58
2023-01-13T01:37:51.650Z,10.86
2023-01-13T01:38:55.289Z,10.88
2023-01-13T01:39:56.945Z,10.84
2023-01-13T01:40:58.906Z,10.81
2023-01-13T01:42:20.620Z,10.76
2023-01-13T01:44:03.150Z,10.73
2023-01-13T01:45:19.700Z,10.75
2023-01-13T01:46:21.855Z,10.79
2023-01-13T01:47:24.923Z,10.65
2023-01-13T01:48:30.115Z,10.60
2023-01-13T01:49:33.972Z,10.72
2023-01-13T01:50:39.333Z,10.59
2023-01-13T01:51:46.939Z,10.59
2023-01-13T01:52:56.906Z,10.64
2023-01-13T01:54:02.794Z,10.68
2023-01-13T01:55:17.714Z,10.79
2023-01-13T01:56:21.236Z,10.88
2023-01-13T01:57:32.725Z,10.70
2023-01-13T01:58:52.662Z,10.82
2023-01-13T01:59:54.579Z,10.84
2023-01-13T02:00:56.391Z,10.82
2023-01-13T02:01:59.039Z,10.72
2023-01-13T02:03:03.923Z,10.71
2023-01-13T02:04:13.031Z,10.82
2023-01-13T02:05:14.705Z,10.71
2023-01-13T02:06:17.142Z,10.69
2023-01-13T02:07:26.612Z,10.64
2023-01-13T02:08:29.080Z,10.66
2023-01-13T02:09:32.619Z,10.66
2023-01-13T02:10:34.523Z,10.71
2023-01-13T02:11:55.714Z,10.70
2023-01-13T02:13:01.389Z,10.65
2023-01-13T02:14:04.404Z,10.53
2023-01-13T02:15:13.393Z,10.51
2023-01-13T02:16:22.109Z,10.55
2023-01-13T02:17:39.802Z,10.54
2023-01-13T02:19:07.718Z,10.52
2023-01-13T02:20:31.409Z,10.55
2023-01-13T02:22:03.323Z,10.52
2023-01-13T02:24:00.632Z,10.41
2023-01-13T02:25:13.486Z,10.34
2023-01-13T02:26:18.214Z,10.33
2023-01-13T02:27:52.799Z,10.41
2023-01-13T02:29:47.530Z,10.54
2023-01-13T02:31:31.359Z,10.69
2023-01-13T02:32:44.607Z,10.95
2023-01-13T02:34:09.148Z,10.97
2023-01-13T02:35:26.623Z,10.90
2023-01-13T02:36:47.992Z,10.81
2023-01-13T02:37:51.036Z,11.01
2023-01-13T02:38:58.527Z,10.96
2023-01-13T02:40:10.122Z,11.03
2023-01-13T02:41:43.422Z,11.01
2023-01-13T02:43:11.804Z,11.08
2023-01-13T02:44:21.130Z,11.09
2023-01-13T02:45:26.337Z,11.22
2023-01-13T02:46:31.795Z,11.27
2023-01-13T02:47:38.668Z,11.24
2023-01-13T02:48:44.869Z,11.45
2023-01-13T02:49:51.226Z,11.49
2023-01-13T02:51:03.905Z,11.49
2023-01-13T02:52:11.802Z,11.46
2023-01-13T02:53:25.739Z,11.47
2023-01-13T02:54:30.916Z,11.66
2023-01-13T02:55:37.544Z,11.56
2023-01-13T02:56:45.093Z,11.73
2023-01-13T02:57:48.640Z,11.69
2023-01-13T02:58:51.444Z,11.72
2023-01-13T02:59:56.332Z,11.77
2023-01-13T03:00:58.427Z,11.68
2023-01-13T03:02:04.484Z,11.72
2023-01-13T03:03:08.264Z,11.69
2023-01-13T03:04:15.285Z,11.77
2023-01-13T03:05:19.872Z,11.88
2023-01-13T03:06:43.317Z,11.90
2023-01-13T03:08:29.661Z,11.91
2023-01-13T03:09:42.090Z,11.96
2023-01-13T03:10:55.888Z,11.95
2023-01-13T03:12:15.848Z,11.92
2023-01-13T03:13:42.649Z,11.89
2023-01-13T03:14:50.602Z,11.93
2023-01-13T03:16:05.372Z,11.92
2023-01-13T03:17:14.085Z,11.96
2023-01-13T03:18:40.521Z,12.03
2023-01-13T03:19:46.723Z,11.99
2023-01-13T03:21:09.972Z,11.99
2023-01-13T03:22:18.655Z,11.96
2023-01-13T03:23:32.311Z,11.90
2023-01-13T03:24:42.300Z,12.01
2023-01-13T03:25:54.679Z,12.02
2023-01-13T03:27:06.388Z,11.99
2023-01-13T03:28:38.638Z,11.97
2023-01-13T03:29:42.869Z,11.87
2023-01-13T03:30:53.813Z,11.90
2023-01-13T03:32:05.077Z,11.98
2023-01-13T03:33:29.360Z,11.95
2023-01-13T03:34:53.728Z,12.02
2023-01-13T03:36:05.697Z,12.04
2023-01-13T03:37:09.731Z,12.05
2023-01-13T03:38:21.187Z,12.03
2023-01-13T03:39:33.197Z,11.96
2023-01-13T03:40:42.001Z,12.02
2023-01-13T03:41:57.160Z,11.91
2023-01-13T03:43:35.881Z,12.03
2023-01-13T03:44:53.796Z,12.06
2023-01-13T03:46:01.850Z,12.05
2023-01-13T03:47:12.921Z,12.06
2023-01-13T03:48:20.223Z,11.91
2023-01-13T03:49:27.015Z,12.03
2023-01-13T03:50:35.983Z,12.04
2023-01-13T03:51:41.350Z,12.00
2023-01-13T03:53:07.318Z,11.90
2023-01-13T03:54:13.814Z,11.99
2023-01-13T03:55:22.803Z,11.87
2023-01-13T03:56:36.743Z,11.93
2023-01-13T03:58:02.579Z,11.97
2023-01-13T03:59:07.288Z,11.96
2023-01-13T04:00:12.778Z,12.02
2023-01-13T04:01:20.774Z,11.96
2023-01-13T04:02:46.000Z,11.87
2023-01-13T04:04:10.470Z,11.91
2023-01-13T04:05:13.254Z,11.76
2023-01-13T04:06:26.412Z,11.86
2023-01-13T04:07:56.198Z,11.85
2023-01-13T04:09:06.887Z,11.91
2023-01-13T04:10:12.617Z,11.91
2023-01-13T04:11:37.547Z,11.87
2023-01-13T04:13:00.908Z,11.68
2023-01-13T04:14:06.046Z,11.85
2023-01-13T04:15:08.351Z,11.83
2023-01-13T04:16:12.176Z,11.75
2023-01-13T04:17:14.713Z,11.73
2023-01-13T04:18:20.554Z,11.79
2023-01-13T04:19:22.332Z,11.82
2023-01-13T04:20:24.470Z,11.71
2023-01-13T04:21:26.730Z,11.75
2023-01-13T04:22:28.640Z,11.75
2023-01-13T04:23:31.664Z,11.77
2023-01-13T04:24:33.701Z,11.76
2023-01-13T04:25:35.893Z,11.78
2023-01-13T04:26:37.717Z,11.74
2023-01-13T04:27:39.822Z,11.65
2023-01-13T04:28:41.679Z,11.72
2023-01-13T04:29:43.993Z,11.71
2023-01-13T04:30:47.092Z,11.73
2023-01-13T04:31:49.261Z,11.72
2023-01-13T04:32:50.908Z,11.77
2023-01-13T04:33:52.770Z,11.72
2023-01-13T04:34:55.239Z,11.76
2023-01-13T04:35:57.135Z,11.70
2023-01-13T04:36:59.165Z,11.55
2023-01-13T04:38:10.010Z,11.72
2023-01-13T04:39:12.036Z,11.67
2023-01-13T04:40:14.044Z,11.63
2023-01-13T04:41:15.779Z,11.67
2023-01-13T04:42:18.810Z,11.61
2023-01-13T04:43:20.425Z,11.60
2023-01-13T04:44:22.556Z,11.67
2023-01-13T04:45:24.362Z,11.67
2023-01-13T04:46:26.017Z,11.69
2023-01-13T04:47:28.012Z,11.61
2023-01-13T04:48:29.731Z,11.52
2023-01-13T04:49:33.411Z,11.37
2023-01-13T04:50:35.530Z,11.43
2023-01-13T04:51:37.135Z,11.55
2023-01-13T04:52:42.241Z,11.60
2023-01-13T04:53:44.214Z,11.59
2023-01-13T04:54:45.838Z,11.63
2023-01-13T04:55:49.971Z,11.62
2023-01-13T04:56:52.383Z,11.62
2023-01-13T04:57:56.531Z,11.60
2023-01-13T04:58:58.487Z,11.52
2023-01-13T05:00:00.518Z,11.49
2023-01-13T05:01:02.151Z,11.58
2023-01-13T05:02:08.813Z,11.54
2023-01-13T05:03:10.664Z,11.57
2023-01-13T05:04:12.376Z,11.55
2023-01-13T05:05:15.792Z,11.57
2023-01-13T05:06:17.798Z,11.52
2023-01-13T05:07:19.701Z,11.57
2023-01-13T05:08:21.430Z,11.60
2023-01-13T05:09:24.317Z,11.56
2023-01-13T05:10:27.082Z,11.58
2023-01-13T05:11:48.952Z,11.54
2023-01-13T05:13:08.886Z,11.49
2023-01-13T05:14:29.553Z,11.42
2023-01-13T05:15:49.908Z,11.42
2023-01-13T05:17:00.709Z,11.39
2023-01-13T05:18:02.952Z,11.35
2023-01-13T05:19:04.472Z,11.30
2023-01-13T05:20:07.188Z,11.27
2023-01-13T05:21:29.200Z,11.21
2023-01-13T05:22:53.549Z,11.27
2023-01-13T05:24:14.503Z,11.24
2023-01-13T05:25:22.093Z,11.16
2023-01-13T05:26:24.420Z,11.25
2023-01-13T05:27:26.725Z,11.14
2023-01-13T05:28:33.458Z,11.26
2023-01-13T05:29:35.334Z,11.23
2023-01-13T05:30:39.577Z,11.35
2023-01-13T05:31:41.509Z,11.34
2023-01-13T05:32:43.667Z,11.41
2023-01-13T05:33:45.771Z,11.38
2023-01-13T05:34:47.672Z,11.36
2023-01-13T05:35:49.829Z,11.33
2023-01-13T05:36:51.808Z,11.29
2023-01-13T05:37:57.949Z,11.39
2023-01-13T05:38:59.991Z,11.42
2023-01-13T05:40:20.804Z,11.49
2023-01-13T05:41:41.570Z,11.56
2023-01-13T05:43:03.490Z,11.69
2023-01-13T05:44:05.396Z,11.68
2023-01-13T05:45:07.719Z,11.72
2023-01-13T05:46:10.214Z,11.81
2023-01-13T05:47:12.083Z,11.67
2023-01-13T05:48:14.565Z,11.84
2023-01-13T05:49:16.254Z,11.88
2023-01-13T05:50:18.363Z,11.80
2023-01-13T05:51:26.571Z,11.61
2023-01-13T05:52:29.281Z,11.84
2023-01-13T05:53:34.490Z,11.90
2023-01-13T05:54:36.441Z,11.89
2023-01-13T05:55:42.374Z,12.02
2023-01-13T05:56:44.374Z,11.99
2023-01-13T05:57:46.253Z,12.01
2023-01-13T05:58:48.025Z,11.96
2023-01-13T05:59:50.072Z,11.86
2023-01-13T06:00:52.686Z,11.84
2023-01-13T06:01:54.378Z,11.92
2023-01-13T06:02:56.663Z,11.83
2023-01-13T06:03:59.647Z,11.88
2023-01-13T06:05:01.574Z,12.00
2023-01-13T06:06:04.588Z,12.00
2023-01-13T06:07:06.195Z,12.03
2023-01-13T06:08:08.963Z,12.02
2023-01-13T06:09:11.461Z,12.08
2023-01-13T06:10:16.232Z,12.09
2023-01-13T06:11:18.315Z,12.08
2023-01-13T06:12:20.300Z,12.02
2023-01-13T06:13:22.527Z,11.93
2023-01-13T06:14:25.679Z,12.02
2023-01-13T06:15:28.908Z,11.99
2023-01-13T06:16:32.030Z,11.94
2023-01-13T06:17:34.043Z,11.94
2023-01-13T06:18:36.156Z,12.07
2023-01-13T06:19:38.759Z,12.07
2023-01-13T06:20:40.726Z,12.07
2023-01-13T06:21:48.560Z,11.99
2023-01-13T06:22:53.185Z,11.84
2023-01-13T06:23:55.333Z,11.93
2023-01-13T06:24:57.392Z,11.88
2023-01-13T06:26:22.701Z,11.83
2023-01-13T06:27:25.419Z,11.83
2023-01-13T06:28:27.854Z,11.84
2023-01-13T06:29:29.586Z,11.80
2023-01-13T06:30:37.702Z,11.79
2023-01-13T06:31:39.748Z,11.61
2023-01-13T06:32:46.005Z,11.55
2023-01-13T06:33:59.029Z,11.32
2023-01-13T06:35:05.933Z,11.12
2023-01-13T06:36:14.313Z,10.96
2023-01-13T06:37:20.660Z,10.77
2023-01-13T06:38:26.319Z,10.70
2023-01-13T06:39:31.239Z,10.53
2023-01-13T06:40:34.499Z,10.50
2023-01-13T06:41:54.940Z,10.50
2023-01-13T06:43:17.551Z,10.35
2023-01-13T06:44:21.205Z,10.35
2023-01-13T06:45:25.831Z,10.39
2023-01-13T06:46:29.322Z,10.56
2023-01-13T06:47:31.734Z,10.44
2023-01-13T06:48:36.038Z,10.39
2023-01-13T06:49:38.457Z,10.56
2023-01-13T06:50:42.445Z,10.61
2023-01-13T06:51:45.112Z,10.57
2023-01-13T06:52:47.208Z,10.52
2023-01-13T06:53:49.501Z,10.50
2023-01-13T06:54:51.383Z,10.56
2023-01-13T06:55:54.502Z,10.57
2023-01-13T06:56:56.610Z,10.46
2023-01-13T06:58:00.127Z,10.43
2023-01-13T06:59:02.344Z,10.43
2023-01-13T07:00:05.453Z,10.42
2023-01-13T07:01:07.338Z,10.51
2023-01-13T07:02:10.712Z,10.50
2023-01-13T07:03:15.465Z,10.40
2023-01-13T07:04:17.213Z,10.28
2023-01-13T07:05:20.452Z,10.57
2023-01-13T07:06:23.729Z,10.56
2023-01-13T07:07:26.136Z,10.50
2023-01-13T07:08:28.871Z,10.35
2023-01-13T07:09:30.651Z,10.39
2023-01-13T07:10:34.696Z,10.35
2023-01-13T07:11:36.903Z,10.40
2023-01-13T07:13:00.069Z,10.41
2023-01-13T07:14:21.738Z,10.49
2023-01-13T07:15:24.505Z,10.64
2023-01-13T07:16:28.526Z,10.73
2023-01-13T07:17:31.682Z,10.85
2023-01-13T07:18:34.867Z,10.92
2023-01-13T07:19:37.038Z,10.95
2023-01-13T07:20:39.228Z,10.99
2023-01-13T07:21:45.963Z,10.96
2023-01-13T07:22:55.257Z,11.11
2023-01-13T07:23:57.690Z,11.25
2023-01-13T07:25:00.795Z,11.27
2023-01-13T07:26:02.650Z,11.38
2023-01-13T07:27:05.513Z,11.35
2023-01-13T07:28:07.756Z,11.32
2023-01-13T07:29:09.713Z,11.26
2023-01-13T07:30:14.158Z,11.21
2023-01-13T07:31:19.499Z,11.22
2023-01-13T07:32:21.689Z,11.20
2023-01-13T07:33:23.907Z,11.22
2023-01-13T07:34:25.570Z,11.38
2023-01-13T07:35:27.763Z,11.33
2023-01-13T07:36:30.042Z,11.26
2023-01-13T07:37:35.178Z,11.25
2023-01-13T07:38:40.029Z,11.18
2023-01-13T07:39:45.437Z,11.14
2023-01-13T07:40:51.040Z,11.17
2023-01-13T07:42:11.632Z,11.12
2023-01-13T07:43:32.240Z,10.97
2023-01-13T07:44:34.234Z,10.92
2023-01-13T07:45:37.521Z,10.80
2023-01-13T07:46:39.462Z,10.70
2023-01-13T07:47:41.700Z,10.59
2023-01-13T07:48:43.754Z,10.65
2023-01-13T07:49:45.335Z,10.57
2023-01-13T07:50:47.601Z,10.46
2023-01-13T07:51:51.651Z,10.44
2023-01-13T07:52:58.075Z,10.27
2023-01-13T07:54:00.009Z,10.08
2023-01-13T07:55:02.828Z,9.87
2023-01-13T07:56:07.286Z,9.88
2023-01-13T07:57:09.561Z,9.78
2023-01-13T07:58:12.480Z,9.63
2023-01-13T07:59:16.465Z,9.66
2023-01-13T08:00:19.579Z,9.59
2023-01-13T08:01:28.409Z,9.54
2023-01-13T08:02:31.719Z,9.51
2023-01-13T08:03:33.574Z,9.53
2023-01-13T08:04:35.839Z,9.45
2023-01-13T08:05:38.003Z,9.22
2023-01-13T08:06:41.634Z,9.37
2023-01-13T08:07:44.446Z,9.30
2023-01-13T08:08:46.978Z,9.30
2023-01-13T08:09:49.005Z,9.17
2023-01-13T08:10:51.604Z,9.10
2023-01-13T08:12:15.458Z,8.99
2023-01-13T08:13:22.956Z,8.82
2023-01-13T08:14:26.106Z,8.66
2023-01-13T08:15:40.036Z,8.58
2023-01-13T08:16:41.952Z,8.37
2023-01-13T08:17:43.830Z,8.29
2023-01-13T08:18:45.922Z,8.20
2023-01-13T08:19:50.560Z,7.94
2023-01-13T08:20:53.998Z,7.89
2023-01-13T08:21:57.294Z,7.87
2023-01-13T08:23:02.389Z,7.92
2023-01-13T08:24:04.606Z,7.83
2023-01-13T08:25:07.545Z,7.99
2023-01-13T08:26:16.023Z,8.01
2023-01-13T08:27:18.367Z,7.95
2023-01-13T08:28:20.379Z,8.06
2023-01-13T08:29:22.334Z,8.06
2023-01-13T08:30:24.276Z,7.94
2023-01-13T08:31:26.730Z,8.04
2023-01-13T08:32:32.375Z,7.96
2023-01-13T08:33:34.459Z,8.05
2023-01-13T08:34:37.604Z,8.13
2023-01-13T08:35:43.950Z,8.10
2023-01-13T08:36:45.593Z,8.14
2023-01-13T08:37:48.782Z,8.19
2023-01-13T08:38:52.985Z,8.28
2023-01-13T08:39:56.357Z,8.30
2023-01-13T08:40:59.459Z,8.29
2023-01-13T08:42:01.686Z,8.39
2023-01-13T08:43:05.223Z,8.42
2023-01-13T08:44:09.248Z,8.43
2023-01-13T08:45:15.988Z,8.45
2023-01-13T08:46:20.428Z,8.39
2023-01-13T08:47:22.696Z,8.41
2023-01-13T08:48:25.014Z,8.45
2023-01-13T08:49:27.067Z,8.44
2023-01-13T08:50:29.467Z,8.26
2023-01-13T08:51:31.575Z,8.38
2023-01-13T08:52:33.695Z,8.39
2023-01-13T08:53:35.796Z,8.37
2023-01-13T08:54:40.302Z,8.33
2023-01-13T08:55:44.205Z,8.27
2023-01-13T08:56:47.659Z,8.29
2023-01-13T08:57:50.113Z,8.35
2023-01-13T08:58:51.787Z,8.26
2023-01-13T08:59:54.168Z,8.38
2023-01-13T09:01:05.761Z,8.39
2023-01-13T09:02:19.103Z,8.31
2023-01-13T09:03:21.334Z,8.28
2023-01-13T09:04:25.895Z,8.24
2023-01-13T09:05:27.932Z,8.27
2023-01-13T09:06:31.875Z,8.20
2023-01-13T09:07:36.330Z,8.31
2023-01-13T09:08:38.497Z,8.17
2023-01-13T09:09:44.104Z,8.29
2023-01-13T09:10:46.099Z,8.24
2023-01-13T09:12:09.796Z,8.31
2023-01-13T09:13:14.204Z,8.30
2023-01-13T09:14:24.294Z,8.15
2023-01-13T09:15:30.865Z,8.25
2023-01-13T09:16:34.427Z,8.23
2023-01-13T09:17:37.146Z,8.22
2023-01-13T09:18:39.456Z,8.20
2023-01-13T09:19:42.986Z,8.19
2023-01-13T09:20:45.201Z,8.18
2023-01-13T09:21:47.572Z,8.16
2023-01-13T09:22:50.938Z,8.17
2023-01-13T09:23:55.399Z,8.19
2023-01-13T09:24:59.178Z,8.17
2023-01-13T09:26:01.016Z,8.25
2023-01-13T09:27:03.135Z,8.21
2023-01-13T09:28:07.107Z,8.21
2023-01-13T09:29:09.114Z,8.08
2023-01-13T09:30:11.509Z,8.15
2023-01-13T09:31:14.107Z,8.32
2023-01-13T09:32:16.598Z,8.30
2023-01-13T09:33:39.222Z,8.30
2023-01-13T09:35:00.353Z,8.29
2023-01-13T09:36:03.204Z,8.25
2023-01-13T09:37:06.936Z,8.34
2023-01-13T09:38:09.743Z,8.27
2023-01-13T09:39:14.434Z,8.20
2023-01-13T09:40:22.758Z,8.26
2023-01-13T09:41:47.143Z,8.26
2023-01-13T09:43:29.815Z,8.09
2023-01-13T09:45:05.408Z,8.36
2023-01-13T09:46:37.906Z,8.33
2023-01-13T09:48:01.275Z,8.30
2023-01-13T09:49:08.286Z,8.27
2023-01-13T09:50:22.443Z,8.21
2023-01-13T09:51:31.335Z,8.20
2023-01-13T09:52:33.448Z,8.14
2023-01-13T09:53:45.596Z,8.23
2023-01-13T09:55:03.601Z,8.22
2023-01-13T09:56:08.859Z,8.19
2023-01-13T09:57:14.129Z,8.22
2023-01-13T09:58:18.744Z,8.17
2023-01-13T09:59:22.613Z,8.14
2023-01-13T10:00:34.971Z,8.16
2023-01-13T10:01:52.154Z,8.06
2023-01-13T10:03:21.250Z,8.12
2023-01-13T10:04:24.121Z,8.04
2023-01-13T10:05:38.249Z,8.07
2023-01-13T10:06:43.220Z,8.07
2023-01-13T10:08:12.767Z,8.05
2023-01-13T10:09:45.237Z,8.03
2023-01-13T10:10:50.124Z,8.04
2023-01-13T10:12:13.754Z,8.04
2023-01-13T10:13:23.809Z,7.99
2023-01-13T10:14:44.332Z,8.07
2023-01-13T10:15:58.206Z,8.04
2023-01-13T10:17:21.713Z,8.04
2023-01-13T10:18:29.279Z,8.04
2023-01-13T10:20:04.807Z,8.05
2023-01-13T10:21:22.930Z,8.07
2023-01-13T10:23:02.303Z,8.14
2023-01-13T10:24:22.842Z,8.19
2023-01-13T10:25:47.487Z,8.16
2023-01-13T10:26:54.752Z,8.15
2023-01-13T10:28:02.084Z,8.04
2023-01-13T10:29:16.950Z,8.16
2023-01-13T10:30:26.030Z,8.13
2023-01-13T10:31:32.556Z,8.10
2023-01-13T10:32:34.209Z,8.01
2023-01-13T10:33:36.553Z,8.12
2023-01-13T10:34:52.964Z,8.12
2023-01-13T10:36:03.777Z,8.11
2023-01-13T10:37:07.400Z,8.17
2023-01-13T10:38:17.073Z,8.13
2023-01-13T10:39:21.801Z,8.19
2023-01-13T10:40:26.267Z,8.18
2023-01-13T10:41:28.461Z,8.08
2023-01-13T10:42:30.504Z,8.21
2023-01-13T10:43:33.162Z,8.19
2023-01-13T10:44:47.546Z,8.12
2023-01-13T10:45:59.188Z,8.12
2023-01-13T10:47:02.170Z,8.05
2023-01-13T10:48:11.453Z,8.12
2023-01-13T10:49:38.723Z,8.14
2023-01-13T10:50:44.801Z,8.20
2023-01-13T10:51:47.672Z,8.16
2023-01-13T10:53:19.633Z,8.16
2023-01-13T10:54:26.081Z,8.10
2023-01-13T10:55:33.536Z,8.09
2023-01-13T10:56:35.840Z,8.08
2023-01-13T10:57:38.586Z,8.05
2023-01-13T10:58:46.613Z,8.06
2023-01-13T10:59:51.259Z,7.90
2023-01-13T11:01:07.077Z,7.92
2023-01-13T11:02:24.722Z,7.92
2023-01-13T11:03:37.408Z,7.92
2023-01-13T11:04:44.594Z,7.89
2023-01-13T11:05:50.632Z,7.99
2023-01-13T11:06:55.331Z,7.95
2023-01-13T11:07:58.326Z,7.99
2023-01-13T11:09:00.625Z,7.97
2023-01-13T11:10:14.565Z,8.12
2023-01-13T11:11:40.275Z,8.07
2023-01-13T11:13:09.025Z,8.07
2023-01-13T11:14:33.174Z,7.97
2023-01-13T11:16:00.743Z,7.97
2023-01-13T11:17:10.863Z,7.97
2023-01-13T11:18:40.942Z,7.92
2023-01-13T11:19:50.951Z,8.08
2023-01-13T11:20:55.204Z,8.27
2023-01-13T11:22:12.846Z,8.51
2023-01-13T11:23:22.965Z,8.64
2023-01-13T11:24:51.880Z,8.71
2023-01-13T11:26:19.454Z,8.66
2023-01-13T11:27:36.484Z,8.66
2023-01-13T11:28:55.564Z,8.66
2023-01-13T11:30:30.470Z,8.64
2023-01-13T11:31:53.022Z,8.52
2023-01-13T11:33:05.493Z,8.70
2023-01-13T11:34:19.441Z,8.79
2023-01-13T11:35:22.004Z,9.13
2023-01-13T11:36:31.568Z,9.40
2023-01-13T11:37:41.752Z,9.08
2023-01-13T11:38:49.370Z,9.07
2023-01-13T11:40:05.694Z,9.34
2023-01-13T11:41:37.144Z,9.07
2023-01-13T11:43:08.083Z,9.23
2023-01-13T11:44:25.783Z,9.63
2023-01-13T11:45:42.419Z,9.70
2023-01-13T11:46:45.178Z,9.50
2023-01-13T11:47:51.128Z,9.33
2023-01-13T11:48:56.970Z,8.96
2023-01-13T11:50:00.323Z,8.83
2023-01-13T11:51:30.138Z,8.93
2023-01-13T11:53:00.339Z,8.72
2023-01-13T11:54:25.275Z,8.66
2023-01-13T11:55:42.029Z,8.55
2023-01-13T11:57:26.879Z,8.85
2023-01-13T11:59:05.834Z,8.84
2023-01-13T12:00:13.994Z,9.08
2023-01-13T12:01:37.224Z,9.27
2023-01-13T12:02:48.143Z,9.69
2023-01-13T12:04:26.516Z,9.99
2023-01-13T12:05:37.684Z,10.49
2023-01-13T12:06:41.688Z,11.07
2023-01-13T12:08:10.315Z,11.84
2023-01-13T12:09:37.709Z,12.27
2023-01-13T12:11:27.412Z,12.66
2023-01-13T12:12:36.003Z,12.49
2023-01-13T12:13:51.340Z,12.07
2023-01-13T12:15:30.225Z,12.95
2023-01-13T12:16:32.670Z,13.79
2023-01-13T12:17:54.169Z,14.00
2023-01-13T12:19:30.812Z,12.85
2023-01-13T12:21:13.055Z,12.94
2023-01-13T12:22:29.532Z,12.40
2023-01-13T12:23:45.135Z,11.83
2023-01-13T12:25:12.224Z,11.75
2023-01-13T12:26:16.769Z,11.99
2023-01-13T12:27:27.023Z,11.96
2023-01-13T12:28:47.004Z,12.22
2023-01-13T12:29:54.027Z,11.78
2023-01-13T12:31:02.617Z,11.19
2023-01-13T12:32:11.422Z,10.98
2023-01-13T12:33:50.960Z,10.87
2023-01-13T12:35:01.811Z,10.86
2023-01-13T12:36:22.047Z,10.79
2023-01-13T12:37:35.669Z,10.68
2023-01-13T12:38:46.787Z,10.55
2023-01-13T12:40:24.201Z,10.30
2023-01-13T12:41:35.186Z,10.29
2023-01-13T12:43:10.372Z,10.29
2023-01-13T12:44:18.521Z,10.21
2023-01-13T12:45:24.751Z,10.26
2023-01-13T12:46:28.662Z,10.25
2023-01-13T12:47:44.997Z,10.19
2023-01-13T12:48:57.055Z,10.42
2023-01-13T12:50:24.982Z,10.80
2023-01-13T12:51:39.397Z,11.22
2023-01-13T12:52:45.074Z,11.53
2023-01-13T12:53:49.293Z,12.00
2023-01-13T12:54:51.856Z,11.96
2023-01-13T12:55:54.749Z,11.96
2023-01-13T12:57:01.093Z,12.12
2023-01-13T12:58:07.055Z,12.23
2023-01-13T12:59:20.140Z,12.24
2023-01-13T13:00:23.939Z,12.14
2023-01-13T13:01:36.441Z,11.95
2023-01-13T13:02:41.524Z,11.73
2023-01-13T13:04:08.143Z,11.45
2023-01-13T13:05:25.200Z,11.08
2023-01-13T13:06:33.277Z,10.74
2023-01-13T13:07:44.539Z,10.27
2023-01-13T13:09:38.048Z,9.90
2023-01-13T13:13:18.927Z,9.00
2023-01-13T13:14:39.244Z,8.59
2023-01-13T13:15:42.735Z,8.46
2023-01-13T13:16:48.586Z,8.41
2023-01-13T13:17:59.681Z,8.42
2023-01-13T13:19:18.229Z,8.30
2023-01-13T13:20:56.449Z,8.30
2023-01-13T13:22:13.857Z,8.09
2023-01-13T13:23:47.967Z,8.04
2023-01-13T13:24:49.724Z,7.97
2023-01-13T13:26:25.146Z,7.89
2023-01-13T13:27:42.738Z,7.81
2023-01-13T13:28:53.742Z,7.72
2023-01-13T13:30:09.669Z,7.68
2023-01-13T13:31:28.251Z,7.62
2023-01-13T13:32:49.161Z,7.56
2023-01-13T13:33:59.672Z,7.55
2023-01-13T13:35:20.756Z,7.40
2023-01-13T13:36:28.539Z,7.40
2023-01-13T13:38:11.056Z,7.37
2023-01-13T13:39:41.115Z,7.31
2023-01-13T13:41:05.520Z,7.28
2023-01-13T13:42:38.981Z,7.38
2023-01-13T13:45:41.351Z,7.37
2023-01-13T13:46:49.751Z,7.34
2023-01-13T13:47:51.758Z,7.23
2023-01-13T13:48:55.537Z,7.06
2023-01-13T13:50:13.860Z,7.02
2023-01-13T13:51:42.070Z,6.91
2023-01-13T13:52:58.476Z,6.99
2023-01-13T13:54:03.722Z,6.97
2023-01-13T13:55:16.229Z,7.01
2023-01-13T13:56:35.320Z,7.13
2023-01-13T13:57:40.268Z,7.26
2023-01-13T13:58:44.889Z,7.39
2023-01-13T13:59:54.073Z,7.65
2023-01-13T14:00:59.182Z,7.68
2023-01-13T14:02:05.307Z,7.66
2023-01-13T14:03:31.474Z,7.54
2023-01-13T14:04:37.141Z,7.58
2023-01-13T14:05:40.997Z,7.35
2023-01-13T14:06:57.577Z,7.47
2023-01-13T14:08:00.988Z,7.26
2023-01-13T14:09:15.704Z,7.31
2023-01-13T14:10:28.865Z,7.23
2023-01-13T14:11:33.425Z,7.15
2023-01-13T14:12:39.594Z,7.22
2023-01-13T14:13:44.538Z,7.13
2023-01-13T14:14:48.811Z,7.21
2023-01-13T14:16:00.736Z,7.08
2023-01-13T14:17:08.669Z,7.14
2023-01-13T14:18:16.527Z,7.14
2023-01-13T14:19:33.289Z,7.00
2023-01-13T14:20:37.429Z,6.91
2023-01-13T14:21:39.931Z,7.01
2023-01-13T14:22:53.587Z,7.38
2023-01-13T14:24:00.757Z,7.40
2023-01-13T14:25:04.573Z,7.16
2023-01-13T14:26:15.492Z,7.43
2023-01-13T14:27:20.822Z,7.33
2023-01-13T14:28:34.364Z,7.28
2023-01-13T14:29:36.847Z,7.27
2023-01-13T14:30:42.816Z,7.41
2023-01-13T14:31:45.943Z,7.39
2023-01-13T14:32:50.815Z,7.32
2023-01-13T14:33:57.540Z,7.33
2023-01-13T14:34:59.845Z,7.35
2023-01-13T14:36:07.642Z,7.39
2023-01-13T14:37:40.917Z,7.36
2023-01-13T14:39:06.624Z,7.26
2023-01-13T14:40:38.807Z,7.29
2023-01-13T14:41:51.411Z,7.33
2023-01-13T14:43:01.128Z,7.22
2023-01-13T14:44:14.566Z,7.51
2023-01-13T14:45:26.627Z,7.60
2023-01-13T14:46:43.193Z,7.82
2023-01-13T14:47:52.768Z,7.74
2023-01-13T14:49:04.615Z,7.68
2023-01-13T14:50:29.019Z,7.59
2023-01-13T14:51:34.524Z,7.48
2023-01-13T14:52:48.786Z,7.33
2023-01-13T14:53:51.467Z,7.36
2023-01-13T14:55:28.999Z,7.38
2023-01-13T14:56:44.002Z,7.24
2023-01-13T14:57:47.372Z,7.12
2023-01-13T14:58:50.329Z,7.23
2023-01-13T15:00:00.815Z,7.20
2023-01-13T15:01:42.026Z,7.18
2023-01-13T15:02:50.470Z,7.13
2023-01-13T15:03:52.225Z,7.17
2023-01-13T15:04:59.108Z,7.20
2023-01-13T15:06:01.491Z,7.25